Newcastle, Australia
Current Conditions -  °F | °C
As of 1:15 PM on Monday 26 Jan 2015 (Local Time) from YWLM Reporting Station
Drizzle Drizzle  
Wind Chill: 72°   Ceiling: 2500
Heat Index: 72°   Visibility: 4mi
Dew Point: 66°   Wind: 15mph
Humidity: 83%   Direction: 130°SE
Pressure: 29.88"   Gusts: NA
Location:  32.93°S, 151.78°E
Report Text: YWLM 260215Z 13013KT 6000 -DZ SCT013 BKN025 BKN030 22/19 Q1012
Loading
Personal Weather Stations






























Interactive Weather Map New forecast layout! Learn more

10-Day Weather Forecast

Advertisements
Track Severe Weather on mobile